sensor_id;sensor_type;location;lat;lon;timestamp;P1;durP1;ratioP1;P2;durP2;ratioP2
20375;SDS011;10347;51.828;6.466;2023-02-28T00:00:11;7.45;;;5.07;;
20375;SDS011;10347;51.828;6.466;2023-02-28T00:02:39;8.50;;;4.70;;
20375;SDS011;10347;51.828;6.466;2023-02-28T00:05:06;8.18;;;5.20;;
20375;SDS011;10347;51.828;6.466;2023-02-28T00:07:33;7.35;;;5.00;;
20375;SDS011;10347;51.828;6.466;2023-02-28T00:09:59;5.03;;;4.55;;
20375;SDS011;10347;51.828;6.466;2023-02-28T00:12:25;5.50;;;4.75;;
20375;SDS011;10347;51.828;6.466;2023-02-28T00:14:51;6.30;;;5.15;;
20375;SDS011;10347;51.828;6.466;2023-02-28T00:17:17;6.40;;;5.38;;
20375;SDS011;10347;51.828;6.466;2023-02-28T00:19:45;8.00;;;5.28;;
20375;SDS011;10347;51.828;6.466;2023-02-28T00:22:16;6.10;;;5.18;;
20375;SDS011;10347;51.828;6.466;2023-02-28T00:24:46;5.60;;;5.00;;
20375;SDS011;10347;51.828;6.466;2023-02-28T00:27:12;6.93;;;5.05;;
20375;SDS011;10347;51.828;6.466;2023-02-28T00:29:38;7.28;;;5.07;;
20375;SDS011;10347;51.828;6.466;2023-02-28T00:32:05;7.15;;;5.32;;
20375;SDS011;10347;51.828;6.466;2023-02-28T00:34:31;5.85;;;5.07;;
20375;SDS011;10347;51.828;6.466;2023-02-28T00:37:02;6.78;;;5.22;;
20375;SDS011;10347;51.828;6.466;2023-02-28T00:39:33;6.90;;;5.57;;
20375;SDS011;10347;51.828;6.466;2023-02-28T00:41:59;5.43;;;4.90;;
20375;SDS011;10347;51.828;6.466;2023-02-28T00:44:25;6.47;;;5.32;;
20375;SDS011;10347;51.828;6.466;2023-02-28T00:46:51;7.00;;;4.95;;
20375;SDS011;10347;51.828;6.466;2023-02-28T00:49:16;7.57;;;5.18;;
20375;SDS011;10347;51.828;6.466;2023-02-28T00:51:42;5.25;;;4.68;;
20375;SDS011;10347;51.828;6.466;2023-02-28T00:54:08;5.93;;;4.82;;
20375;SDS011;10347;51.828;6.466;2023-02-28T00:56:33;7.10;;;5.18;;
20375;SDS011;10347;51.828;6.466;2023-02-28T00:58:59;5.18;;;4.68;;
20375;SDS011;10347;51.828;6.466;2023-02-28T01:01:24;9.30;;;5.68;;
20375;SDS011;10347;51.828;6.466;2023-02-28T01:03:50;5.97;;;4.47;;
20375;SDS011;10347;51.828;6.466;2023-02-28T01:06:16;6.53;;;5.18;;
20375;SDS011;10347;51.828;6.466;2023-02-28T01:08:41;5.65;;;4.97;;
20375;SDS011;10347;51.828;6.466;2023-02-28T01:11:10;7.40;;;5.38;;
20375;SDS011;10347;51.828;6.466;2023-02-28T01:13:37;6.43;;;5.32;;
20375;SDS011;10347;51.828;6.466;2023-02-28T01:16:03;6.35;;;4.88;;
20375;SDS011;10347;51.828;6.466;2023-02-28T01:18:28;5.65;;;5.00;;
20375;SDS011;10347;51.828;6.466;2023-02-28T01:20:55;6.95;;;4.60;;
20375;SDS011;10347;51.828;6.466;2023-02-28T01:23:21;5.13;;;4.60;;
20375;SDS011;10347;51.828;6.466;2023-02-28T01:25:48;7.57;;;4.95;;
20375;SDS011;10347;51.828;6.466;2023-02-28T01:28:17;5.53;;;4.32;;
20375;SDS011;10347;51.828;6.466;2023-02-28T01:30:46;7.47;;;4.82;;
20375;SDS011;10347;51.828;6.466;2023-02-28T01:33:13;5.40;;;4.50;;
20375;SDS011;10347;51.828;6.466;2023-02-28T01:35:38;4.82;;;4.40;;
20375;SDS011;10347;51.828;6.466;2023-02-28T01:38:04;4.78;;;4.25;;
20375;SDS011;10347;51.828;6.466;2023-02-28T01:40:29;6.15;;;4.38;;
20375;SDS011;10347;51.828;6.466;2023-02-28T01:42:55;5.90;;;4.53;;
20375;SDS011;10347;51.828;6.466;2023-02-28T01:45:27;4.97;;;4.20;;
20375;SDS011;10347;51.828;6.466;2023-02-28T01:47:58;6.50;;;5.25;;
20375;SDS011;10347;51.828;6.466;2023-02-28T01:50:29;6.30;;;4.50;;
20375;SDS011;10347;51.828;6.466;2023-02-28T01:52:59;5.05;;;4.55;;
20375;SDS011;10347;51.828;6.466;2023-02-28T01:55:28;5.18;;;4.68;;
20375;SDS011;10347;51.828;6.466;2023-02-28T01:57:55;4.50;;;4.10;;
20375;SDS011;10347;51.828;6.466;2023-02-28T02:00:24;6.47;;;4.30;;
20375;SDS011;10347;51.828;6.466;2023-02-28T02:02:55;7.18;;;4.22;;
20375;SDS011;10347;51.828;6.466;2023-02-28T02:05:27;4.50;;;4.00;;
20375;SDS011;10347;51.828;6.466;2023-02-28T02:07:56;4.50;;;3.92;;
20375;SDS011;10347;51.828;6.466;2023-02-28T02:13:05;4.38;;;3.95;;
20375;SDS011;10347;51.828;6.466;2023-02-28T02:18:26;4.82;;;4.10;;
20375;SDS011;10347;51.828;6.466;2023-02-28T02:29:46;5.35;;;3.42;;
20375;SDS011;10347;51.828;6.466;2023-02-28T02:40:37;5.20;;;3.58;;
20375;SDS011;10347;51.828;6.466;2023-02-28T02:46:10;3.35;;;3.05;;
20375;SDS011;10347;51.828;6.466;2023-02-28T02:49:09;3.22;;;3.03;;
20375;SDS011;10347;51.828;6.466;2023-02-28T02:51:40;3.10;;;2.80;;
20375;SDS011;10347;51.828;6.466;2023-02-28T02:54:14;3.20;;;2.90;;
20375;SDS011;10347;51.828;6.466;2023-02-28T02:56:53;3.35;;;3.05;;
20375;SDS011;10347;51.828;6.466;2023-02-28T02:59:22;3.33;;;3.03;;
20375;SDS011;10347;51.828;6.466;2023-02-28T03:01:53;3.90;;;2.80;;
20375;SDS011;10347;51.828;6.466;2023-02-28T03:04:22;3.10;;;2.80;;
20375;SDS011;10347;51.828;6.466;2023-02-28T03:06:50;3.00;;;2.80;;
20375;SDS011;10347;51.828;6.466;2023-02-28T03:09:19;5.25;;;3.50;;
20375;SDS011;10347;51.828;6.466;2023-02-28T03:11:48;4.57;;;3.22;;
20375;SDS011;10347;51.828;6.466;2023-02-28T03:25:21;3.30;;;3.00;;
20375;SDS011;10347;51.828;6.466;2023-02-28T03:27:55;5.85;;;3.53;;
20375;SDS011;10347;51.828;6.466;2023-02-28T03:33:10;3.67;;;3.10;;
20375;SDS011;10347;51.828;6.466;2023-02-28T03:35:45;3.95;;;3.50;;
20375;SDS011;10347;51.828;6.466;2023-02-28T03:40:48;3.25;;;3.05;;
20375;SDS011;10347;51.828;6.466;2023-02-28T03:43:20;4.75;;;3.55;;
20375;SDS011;10347;51.828;6.466;2023-02-28T03:45:50;3.72;;;3.42;;
20375;SDS011;10347;51.828;6.466;2023-02-28T03:51:08;4.78;;;3.72;;
20375;SDS011;10347;51.828;6.466;2023-02-28T03:53:39;3.40;;;3.10;;
20375;SDS011;10347;51.828;6.466;2023-02-28T03:56:11;4.45;;;3.45;;
20375;SDS011;10347;51.828;6.466;2023-02-28T03:58:58;3.95;;;3.55;;
20375;SDS011;10347;51.828;6.466;2023-02-28T04:01:34;3.67;;;3.38;;
20375;SDS011;10347;51.828;6.466;2023-02-28T04:04:08;3.97;;;3.67;;
20375;SDS011;10347;51.828;6.466;2023-02-28T04:06:36;4.07;;;3.20;;
20375;SDS011;10347;51.828;6.466;2023-02-28T04:09:02;4.07;;;3.28;;
20375;SDS011;10347;51.828;6.466;2023-02-28T04:14:00;3.75;;;3.40;;
20375;SDS011;10347;51.828;6.466;2023-02-28T04:16:27;3.15;;;2.95;;
20375;SDS011;10347;51.828;6.466;2023-02-28T04:18:53;5.55;;;3.40;;
20375;SDS011;10347;51.828;6.466;2023-02-28T04:21:18;4.03;;;3.58;;
20375;SDS011;10347;51.828;6.466;2023-02-28T04:23:47;3.83;;;3.50;;
20375;SDS011;10347;51.828;6.466;2023-02-28T04:26:12;3.42;;;3.13;;
20375;SDS011;10347;51.828;6.466;2023-02-28T04:28:38;3.72;;;3.45;;
20375;SDS011;10347;51.828;6.466;2023-02-28T04:31:04;3.85;;;3.55;;
20375;SDS011;10347;51.828;6.466;2023-02-28T04:33:31;3.80;;;3.20;;
20375;SDS011;10347;51.828;6.466;2023-02-28T04:35:58;3.45;;;3.17;;
20375;SDS011;10347;51.828;6.466;2023-02-28T04:38:28;4.45;;;3.60;;
20375;SDS011;10347;51.828;6.466;2023-02-28T04:40:58;5.68;;;3.60;;
20375;SDS011;10347;51.828;6.466;2023-02-28T04:43:25;3.85;;;3.15;;
20375;SDS011;10347;51.828;6.466;2023-02-28T04:45:51;4.00;;;3.60;;
20375;SDS011;10347;51.828;6.466;2023-02-28T04:48:17;4.22;;;3.40;;
20375;SDS011;10347;51.828;6.466;2023-02-28T04:50:43;3.65;;;3.35;;
20375;SDS011;10347;51.828;6.466;2023-02-28T04:53:08;4.10;;;3.25;;
20375;SDS011;10347;51.828;6.466;2023-02-28T04:55:34;3.33;;;3.13;;
20375;SDS011;10347;51.828;6.466;2023-02-28T04:57:59;3.70;;;3.40;;
20375;SDS011;10347;51.828;6.466;2023-02-28T05:00:25;3.80;;;3.50;;
20375;SDS011;10347;51.828;6.466;2023-02-28T05:02:51;4.32;;;3.53;;
20375;SDS011;10347;51.828;6.466;2023-02-28T05:05:17;3.83;;;3.45;;
20375;SDS011;10347;51.828;6.466;2023-02-28T05:07:43;3.65;;;3.35;;
20375;SDS011;10347;51.828;6.466;2023-02-28T05:10:09;4.30;;;3.33;;
20375;SDS011;10347;51.828;6.466;2023-02-28T05:12:36;4.40;;;3.60;;
20375;SDS011;10347;51.828;6.466;2023-02-28T05:15:01;3.60;;;3.30;;
20375;SDS011;10347;51.828;6.466;2023-02-28T05:17:28;3.65;;;3.35;;
20375;SDS011;10347;51.828;6.466;2023-02-28T05:19:53;4.35;;;3.67;;
20375;SDS011;10347;51.828;6.466;2023-02-28T05:22:19;3.90;;;3.50;;
20375;SDS011;10347;51.828;6.466;2023-02-28T05:24:44;3.75;;;3.38;;
20375;SDS011;10347;51.828;6.466;2023-02-28T05:27:10;4.53;;;3.75;;
20375;SDS011;10347;51.828;6.466;2023-02-28T05:29:36;3.63;;;3.28;;
20375;SDS011;10347;51.828;6.466;2023-02-28T05:32:06;3.95;;;3.53;;
20375;SDS011;10347;51.828;6.466;2023-02-28T05:34:38;4.63;;;4.15;;
20375;SDS011;10347;51.828;6.466;2023-02-28T05:37:05;4.72;;;3.97;;
20375;SDS011;10347;51.828;6.466;2023-02-28T05:39:31;4.25;;;3.85;;
20375;SDS011;10347;51.828;6.466;2023-02-28T05:41:56;4.72;;;3.80;;
20375;SDS011;10347;51.828;6.466;2023-02-28T05:44:22;4.38;;;3.75;;
20375;SDS011;10347;51.828;6.466;2023-02-28T05:46:47;4.22;;;3.85;;
20375;SDS011;10347;51.828;6.466;2023-02-28T05:49:13;4.90;;;3.85;;
20375;SDS011;10347;51.828;6.466;2023-02-28T05:51:39;5.03;;;3.60;;
20375;SDS011;10347;51.828;6.466;2023-02-28T05:54:04;4.47;;;4.07;;
20375;SDS011;10347;51.828;6.466;2023-02-28T05:56:31;4.18;;;3.78;;
20375;SDS011;10347;51.828;6.466;2023-02-28T05:58:59;3.95;;;3.33;;
20375;SDS011;10347;51.828;6.466;2023-02-28T06:01:35;5.32;;;3.70;;
20375;SDS011;10347;51.828;6.466;2023-02-28T06:04:01;3.92;;;3.40;;
20375;SDS011;10347;51.828;6.466;2023-02-28T06:06:29;3.50;;;3.20;;
20375;SDS011;10347;51.828;6.466;2023-02-28T06:08:55;4.15;;;3.08;;
20375;SDS011;10347;51.828;6.466;2023-02-28T06:11:21;3.70;;;3.40;;
20375;SDS011;10347;51.828;6.466;2023-02-28T06:13:52;3.72;;;3.03;;
20375;SDS011;10347;51.828;6.466;2023-02-28T06:16:19;4.18;;;3.30;;
20375;SDS011;10347;51.828;6.466;2023-02-28T06:18:45;3.40;;;3.10;;
20375;SDS011;10347;51.828;6.466;2023-02-28T06:21:11;4.28;;;3.30;;
20375;SDS011;10347;51.828;6.466;2023-02-28T06:23:37;3.83;;;2.95;;
20375;SDS011;10347;51.828;6.466;2023-02-28T06:26:02;3.72;;;3.17;;
20375;SDS011;10347;51.828;6.466;2023-02-28T06:28:28;3.90;;;3.20;;
20375;SDS011;10347;51.828;6.466;2023-02-28T06:30:54;3.35;;;3.05;;
20375;SDS011;10347;51.828;6.466;2023-02-28T06:33:19;6.38;;;3.53;;
20375;SDS011;10347;51.828;6.466;2023-02-28T06:35:51;4.18;;;3.70;;
20375;SDS011;10347;51.828;6.466;2023-02-28T06:38:17;5.68;;;3.90;;
20375;SDS011;10347;51.828;6.466;2023-02-28T06:40:43;4.35;;;3.50;;
20375;SDS011;10347;51.828;6.466;2023-02-28T06:43:09;3.60;;;3.30;;
20375;SDS011;10347;51.828;6.466;2023-02-28T06:45:40;4.07;;;3.67;;
20375;SDS011;10347;51.828;6.466;2023-02-28T06:48:07;3.35;;;3.15;;
20375;SDS011;10347;51.828;6.466;2023-02-28T06:50:32;4.13;;;3.75;;
20375;SDS011;10347;51.828;6.466;2023-02-28T06:52:58;4.30;;;3.80;;
20375;SDS011;10347;51.828;6.466;2023-02-28T06:55:23;4.40;;;3.53;;
20375;SDS011;10347;51.828;6.466;2023-02-28T06:57:49;4.28;;;3.60;;
20375;SDS011;10347;51.828;6.466;2023-02-28T07:00:15;3.90;;;3.15;;
20375;SDS011;10347;51.828;6.466;2023-02-28T07:02:41;4.53;;;3.45;;
20375;SDS011;10347;51.828;6.466;2023-02-28T19:19:08;6.22;;;3.50;;
20375;SDS011;10347;51.828;6.466;2023-02-28T19:21:39;5.35;;;3.75;;
20375;SDS011;10347;51.828;6.466;2023-02-28T19:24:11;4.68;;;3.33;;
20375;SDS011;10347;51.828;6.466;2023-02-28T19:26:39;3.97;;;3.58;;
20375;SDS011;10347;51.828;6.466;2023-02-28T19:29:25;3.85;;;3.50;;
20375;SDS011;10347;51.828;6.466;2023-02-28T19:31:59;4.47;;;3.63;;
20375;SDS011;10347;51.828;6.466;2023-02-28T19:34:28;4.25;;;3.10;;
20375;SDS011;10347;51.828;6.466;2023-02-28T19:36:56;5.15;;;4.15;;
20375;SDS011;10347;51.828;6.466;2023-02-28T19:39:25;5.30;;;3.53;;
20375;SDS011;10347;51.828;6.466;2023-02-28T19:41:51;3.75;;;3.42;;
20375;SDS011;10347;51.828;6.466;2023-02-28T19:44:18;4.30;;;3.90;;
20375;SDS011;10347;51.828;6.466;2023-02-28T19:46:47;5.40;;;4.13;;
20375;SDS011;10347;51.828;6.466;2023-02-28T19:49:27;4.82;;;4.40;;
20375;SDS011;10347;51.828;6.466;2023-02-28T20:11:52;6.47;;;4.82;;
20375;SDS011;10347;51.828;6.466;2023-02-28T23:32:23;8.20;;;5.30;;
20375;SDS011;10347;51.828;6.466;2023-02-28T23:38:11;7.40;;;5.28;;
20375;SDS011;10347;51.828;6.466;2023-02-28T23:40:39;6.78;;;4.82;;
20375;SDS011;10347;51.828;6.466;2023-02-28T23:43:05;7.60;;;5.38;;
20375;SDS011;10347;51.828;6.466;2023-02-28T23:45:30;6.93;;;5.07;;
20375;SDS011;10347;51.828;6.466;2023-02-28T23:47:56;4.95;;;4.43;;
20375;SDS011;10347;51.828;6.466;2023-02-28T23:50:22;7.25;;;5.35;;
20375;SDS011;10347;51.828;6.466;2023-02-28T23:52:47;7.90;;;5.45;;
20375;SDS011;10347;51.828;6.466;2023-02-28T23:55:13;6.95;;;4.78;;
20375;SDS011;10347;51.828;6.466;2023-02-28T23:57:39;5.65;;;5.03;;
